sensor_id;sensor_type;location;lat;lon;timestamp;pressure;altitude;pressure_sealevel;temperature;humidity
69780;BME280;57052;55.602;38.096;2022-12-11T00:00:37;99543.75;;;3.62;74.33
69780;BME280;57052;55.602;38.096;2022-12-11T00:03:04;99535.81;;;3.67;74.17
69780;BME280;57052;55.602;38.096;2022-12-11T00:05:30;99527.69;;;3.62;73.78
69780;BME280;57052;55.602;38.096;2022-12-11T00:07:55;99555.13;;;3.69;74.21
69780;BME280;57052;55.602;38.096;2022-12-11T00:10:21;99536.78;;;3.61;74.45
69780;BME280;57052;55.602;38.096;2022-12-11T00:12:47;99522.25;;;3.57;73.97
69780;BME280;57052;55.602;38.096;2022-12-11T00:15:12;99545.72;;;3.67;73.83
69780;BME280;57052;55.602;38.096;2022-12-11T00:17:38;99539.22;;;3.63;74.43
69780;BME280;57052;55.602;38.096;2022-12-11T00:20:04;99530.38;;;3.62;73.98
69780;BME280;57052;55.602;38.096;2022-12-11T00:22:30;99536.63;;;3.68;74.00
69780;BME280;57052;55.602;38.096;2022-12-11T00:24:56;99535.00;;;3.67;73.91
69780;BME280;57052;55.602;38.096;2022-12-11T00:27:21;99526.97;;;3.67;74.04
69780;BME280;57052;55.602;38.096;2022-12-11T00:29:47;99533.97;;;3.68;74.47
69780;BME280;57052;55.602;38.096;2022-12-11T00:32:12;99535.16;;;3.60;73.89
69780;BME280;57052;55.602;38.096;2022-12-11T00:34:38;99534.34;;;3.60;74.53
69780;BME280;57052;55.602;38.096;2022-12-11T00:37:03;99548.63;;;3.65;73.74
69780;BME280;57052;55.602;38.096;2022-12-11T00:39:29;99546.53;;;3.67;74.46
69780;BME280;57052;55.602;38.096;2022-12-11T00:41:55;99522.00;;;3.59;73.89
69780;BME280;57052;55.602;38.096;2022-12-11T00:44:21;99526.41;;;3.65;73.94
69780;BME280;57052;55.602;38.096;2022-12-11T00:46:46;99542.13;;;3.61;74.47
69780;BME280;57052;55.602;38.096;2022-12-11T00:49:12;99555.94;;;3.70;73.70
69780;BME280;57052;55.602;38.096;2022-12-11T00:51:38;99546.53;;;3.67;73.89
69780;BME280;57052;55.602;38.096;2022-12-11T00:54:03;99544.31;;;3.64;73.96
69780;BME280;57052;55.602;38.096;2022-12-11T00:56:29;99549.19;;;3.67;74.61
69780;BME280;57052;55.602;38.096;2022-12-11T00:58:55;99547.56;;;3.66;74.31
69780;BME280;57052;55.602;38.096;2022-12-11T01:01:22;99541.66;;;3.64;74.16
69780;BME280;57052;55.602;38.096;2022-12-11T01:03:48;99554.78;;;3.66;74.34
69780;BME280;57052;55.602;38.096;2022-12-11T01:06:16;99550.81;;;3.68;74.43
69780;BME280;57052;55.602;38.096;2022-12-11T01:08:43;99537.69;;;3.67;74.04
69780;BME280;57052;55.602;38.096;2022-12-11T01:11:11;99538.50;;;3.67;74.50
69780;BME280;57052;55.602;38.096;2022-12-11T01:13:38;99540.44;;;3.72;74.67
69780;BME280;57052;55.602;38.096;2022-12-11T01:16:14;99545.78;;;3.72;74.80
69780;BME280;57052;55.602;38.096;2022-12-11T01:18:40;99550.00;;;3.68;74.45
69780;BME280;57052;55.602;38.096;2022-12-11T01:21:11;99553.81;;;3.72;74.59
69780;BME280;57052;55.602;38.096;2022-12-11T01:23:38;99545.97;;;3.65;74.22
69780;BME280;57052;55.602;38.096;2022-12-11T01:26:12;99549.28;;;3.72;74.69
69780;BME280;57052;55.602;38.096;2022-12-11T01:28:39;99548.00;;;3.75;74.76
69780;BME280;57052;55.602;38.096;2022-12-11T01:31:14;99560.81;;;3.73;74.52
69780;BME280;57052;55.602;38.096;2022-12-11T01:33:40;99560.00;;;3.72;74.54
69780;BME280;57052;55.602;38.096;2022-12-11T01:36:14;99550.81;;;3.68;74.06
69780;BME280;57052;55.602;38.096;2022-12-11T01:38:40;99522.66;;;3.49;74.26
69780;BME280;57052;55.602;38.096;2022-12-11T01:41:07;99556.50;;;3.72;74.39
69780;BME280;57052;55.602;38.096;2022-12-11T01:43:34;99555.47;;;3.73;74.19
69780;BME280;57052;55.602;38.096;2022-12-11T01:46:00;99551.88;;;3.67;73.87
69780;BME280;57052;55.602;38.096;2022-12-11T01:48:30;99555.13;;;3.69;74.05
69780;BME280;57052;55.602;38.096;2022-12-11T01:50:59;99558.13;;;3.73;74.09
69780;BME280;57052;55.602;38.096;2022-12-11T01:53:32;99554.28;;;3.69;74.19
69780;BME280;57052;55.602;38.096;2022-12-11T01:55:58;99562.97;;;3.76;74.02
69780;BME280;57052;55.602;38.096;2022-12-11T01:58:33;99557.31;;;3.72;74.82
69780;BME280;57052;55.602;38.096;2022-12-11T02:01:03;99563.25;;;3.74;75.00
69780;BME280;57052;55.602;38.096;2022-12-11T02:03:29;99566.72;;;3.75;74.08
69780;BME280;57052;55.602;38.096;2022-12-11T02:06:01;99541.09;;;3.62;74.86
69780;BME280;57052;55.602;38.096;2022-12-11T02:08:27;99549.28;;;3.72;74.75
69780;BME280;57052;55.602;38.096;2022-12-11T02:11:12;99563.81;;;3.76;74.41
69780;BME280;57052;55.602;38.096;2022-12-11T02:13:54;99546.75;;;3.66;74.77
69780;BME280;57052;55.602;38.096;2022-12-11T02:16:33;99562.19;;;3.75;74.41
69780;BME280;57052;55.602;38.096;2022-12-11T02:22:02;99561.59;;;3.73;74.94
69780;BME280;57052;55.602;38.096;2022-12-11T02:24:31;99567.78;;;3.74;74.24
69780;BME280;57052;55.602;38.096;2022-12-11T02:27:25;99576.28;;;3.71;74.46
69780;BME280;57052;55.602;38.096;2022-12-11T02:30:06;99574.19;;;3.73;74.90
69780;BME280;57052;55.602;38.096;2022-12-11T02:35:30;99587.78;;;3.71;74.80
69780;BME280;57052;55.602;38.096;2022-12-11T02:38:21;99578.16;;;3.70;74.53
69780;BME280;57052;55.602;38.096;2022-12-11T02:40:51;99585.59;;;3.68;74.70
69780;BME280;57052;55.602;38.096;2022-12-11T02:43:19;99593.72;;;3.73;74.10
69780;BME280;57052;55.602;38.096;2022-12-11T02:45:47;99605.50;;;3.72;74.45
69780;BME280;57052;55.602;38.096;2022-12-11T02:48:16;99610.03;;;3.72;74.81
69780;BME280;57052;55.602;38.096;2022-12-11T02:50:45;99599.69;;;3.64;74.73
69780;BME280;57052;55.602;38.096;2022-12-11T02:53:15;99613.53;;;3.72;74.73
69780;BME280;57052;55.602;38.096;2022-12-11T02:55:42;99606.31;;;3.73;74.68
69780;BME280;57052;55.602;38.096;2022-12-11T02:58:23;99609.22;;;3.71;74.81
69780;BME280;57052;55.602;38.096;2022-12-11T03:00:50;99601.09;;;3.66;74.48
69780;BME280;57052;55.602;38.096;2022-12-11T03:03:17;99616.28;;;3.77;74.91
69780;BME280;57052;55.602;38.096;2022-12-11T03:05:43;99625.94;;;3.78;74.66
69780;BME280;57052;55.602;38.096;2022-12-11T03:08:11;99611.66;;;3.73;74.93
69780;BME280;57052;55.602;38.096;2022-12-11T03:10:37;99622.22;;;3.79;74.48
69780;BME280;57052;55.602;38.096;2022-12-11T03:13:03;99620.81;;;3.77;74.48
69780;BME280;57052;55.602;38.096;2022-12-11T03:15:48;99615.94;;;3.74;74.98
69780;BME280;57052;55.602;38.096;2022-12-11T03:18:27;99631.06;;;3.80;74.62
69780;BME280;57052;55.602;38.096;2022-12-11T03:21:18;99626.34;;;3.70;75.39
69780;BME280;57052;55.602;38.096;2022-12-11T03:23:56;99640.59;;;3.76;75.03
69780;BME280;57052;55.602;38.096;2022-12-11T03:26:27;99638.19;;;3.74;75.02
69780;BME280;57052;55.602;38.096;2022-12-11T03:28:58;99654.06;;;3.81;74.62
69780;BME280;57052;55.602;38.096;2022-12-11T03:31:33;99654.34;;;3.79;74.67
69780;BME280;57052;55.602;38.096;2022-12-11T03:34:03;99652.59;;;3.73;75.29
69780;BME280;57052;55.602;38.096;2022-12-11T03:36:36;99661.53;;;3.79;74.89
69780;BME280;57052;55.602;38.096;2022-12-11T03:39:09;99649.69;;;3.75;75.06
69780;BME280;57052;55.602;38.096;2022-12-11T03:41:38;99652.13;;;3.76;74.75
69780;BME280;57052;55.602;38.096;2022-12-11T03:44:06;99637.59;;;3.72;74.84
69780;BME280;57052;55.602;38.096;2022-12-11T03:46:35;99640.94;;;3.79;74.80
69780;BME280;57052;55.602;38.096;2022-12-11T03:49:09;99642.34;;;3.82;74.68
69780;BME280;57052;55.602;38.096;2022-12-11T03:51:38;99640.59;;;3.76;74.98
69780;BME280;57052;55.602;38.096;2022-12-11T03:54:07;99654.59;;;3.78;74.86
69780;BME280;57052;55.602;38.096;2022-12-11T03:56:34;99662.09;;;3.81;74.47
69780;BME280;57052;55.602;38.096;2022-12-11T03:59:01;99656.44;;;3.77;75.61
69780;BME280;57052;55.602;38.096;2022-12-11T04:01:26;99651.72;;;3.68;75.09
69780;BME280;57052;55.602;38.096;2022-12-11T04:03:52;99671.69;;;3.77;75.31
69780;BME280;57052;55.602;38.096;2022-12-11T04:06:18;99667.16;;;3.77;74.64
69780;BME280;57052;55.602;38.096;2022-12-11T04:08:43;99671.44;;;3.78;75.16
69780;BME280;57052;55.602;38.096;2022-12-11T04:11:09;99667.97;;;3.78;74.74
69780;BME280;57052;55.602;38.096;2022-12-11T04:13:53;99659.25;;;3.71;75.09
69780;BME280;57052;55.602;38.096;2022-12-11T04:16:38;99680.06;;;3.80;75.48
69780;BME280;57052;55.602;38.096;2022-12-11T04:19:04;99675.66;;;3.74;75.35
69780;BME280;57052;55.602;38.096;2022-12-11T04:21:48;99685.06;;;3.77;74.82
69780;BME280;57052;55.602;38.096;2022-12-11T04:24:32;99688.47;;;3.72;75.33
69780;BME280;57052;55.602;38.096;2022-12-11T04:26:58;99699.28;;;3.77;75.12
69780;BME280;57052;55.602;38.096;2022-12-11T04:29:24;99687.50;;;3.78;75.40
69780;BME280;57052;55.602;38.096;2022-12-11T04:31:50;99689.84;;;3.75;75.40
69780;BME280;57052;55.602;38.096;2022-12-11T04:34:16;99697.16;;;3.79;75.28
69780;BME280;57052;55.602;38.096;2022-12-11T04:36:41;99691.47;;;3.76;74.77
69780;BME280;57052;55.602;38.096;2022-12-11T04:39:07;99686.34;;;3.74;74.93
69780;BME280;57052;55.602;38.096;2022-12-11T04:41:33;99697.06;;;3.74;75.32
69780;BME280;57052;55.602;38.096;2022-12-11T04:44:04;99704.63;;;3.77;75.02
69780;BME280;57052;55.602;38.096;2022-12-11T04:46:30;99707.31;;;3.77;75.18
69780;BME280;57052;55.602;38.096;2022-12-11T04:48:56;99701.84;;;3.72;75.46
69780;BME280;57052;55.602;38.096;2022-12-11T04:51:22;99716.94;;;3.78;74.76
69780;BME280;57052;55.602;38.096;2022-12-11T04:53:47;99698.91;;;3.74;75.27
69780;BME280;57052;55.602;38.096;2022-12-11T04:56:14;99698.69;;;3.75;74.63
69780;BME280;57052;55.602;38.096;2022-12-11T04:58:41;99705.66;;;3.76;75.14
69780;BME280;57052;55.602;38.096;2022-12-11T05:01:08;99707.31;;;3.77;75.06
69780;BME280;57052;55.602;38.096;2022-12-11T05:03:34;99695.31;;;3.68;74.85
69780;BME280;57052;55.602;38.096;2022-12-11T05:06:00;99705.91;;;3.75;74.70
69780;BME280;57052;55.602;38.096;2022-12-11T05:08:25;99712.09;;;3.75;74.94
69780;BME280;57052;55.602;38.096;2022-12-11T05:10:56;99714.75;;;3.75;75.21
69780;BME280;57052;55.602;38.096;2022-12-11T05:13:22;99711.00;;;3.76;74.60
69780;BME280;57052;55.602;38.096;2022-12-11T05:15:47;99704.75;;;3.71;74.45
69780;BME280;57052;55.602;38.096;2022-12-11T05:18:13;99712.31;;;3.74;74.84
69780;BME280;57052;55.602;38.096;2022-12-11T05:20:38;99709.41;;;3.75;74.98
69780;BME280;57052;55.602;38.096;2022-12-11T05:23:04;99702.78;;;3.66;75.10
69780;BME280;57052;55.602;38.096;2022-12-11T05:25:30;99707.31;;;3.66;75.22
69780;BME280;57052;55.602;38.096;2022-12-11T05:27:55;99715.81;;;3.74;75.17
69780;BME280;57052;55.602;38.096;2022-12-11T05:30:21;99727.31;;;3.75;75.05
69780;BME280;57052;55.602;38.096;2022-12-11T05:32:46;99725.13;;;3.72;74.42
69780;BME280;57052;55.602;38.096;2022-12-11T05:35:12;99721.63;;;3.71;74.50
69780;BME280;57052;55.602;38.096;2022-12-11T05:37:37;99727.22;;;3.70;75.36
69780;BME280;57052;55.602;38.096;2022-12-11T05:40:03;99739.53;;;3.71;75.04
69780;BME280;57052;55.602;38.096;2022-12-11T05:42:31;99748.94;;;3.73;75.20
69780;BME280;57052;55.602;38.096;2022-12-11T05:44:57;99756.66;;;3.70;74.84
69780;BME280;57052;55.602;38.096;2022-12-11T05:47:23;99758.06;;;3.72;74.67
69780;BME280;57052;55.602;38.096;2022-12-11T05:49:48;99753.75;;;3.71;74.36
69780;BME280;57052;55.602;38.096;2022-12-11T05:52:14;99761.56;;;3.73;75.03
69780;BME280;57052;55.602;38.096;2022-12-11T05:54:41;99770.50;;;3.67;74.44
69780;BME280;57052;55.602;38.096;2022-12-11T05:57:06;99784.81;;;3.72;74.53
69780;BME280;57052;55.602;38.096;2022-12-11T05:59:32;99770.25;;;3.68;74.50
69780;BME280;57052;55.602;38.096;2022-12-11T06:01:58;99795.53;;;3.72;74.38
69780;BME280;57052;55.602;38.096;2022-12-11T06:04:23;99796.34;;;3.73;74.31
69780;BME280;57052;55.602;38.096;2022-12-11T06:06:49;99794.59;;;3.67;74.61
69780;BME280;57052;55.602;38.096;2022-12-11T06:09:15;99787.28;;;3.62;74.88
69780;BME280;57052;55.602;38.096;2022-12-11T06:11:41;99806.22;;;3.72;74.67
69780;BME280;57052;55.602;38.096;2022-12-11T06:14:08;99816.69;;;3.74;74.71
69780;BME280;57052;55.602;38.096;2022-12-11T06:16:34;99817.41;;;3.69;74.56
69780;BME280;57052;55.602;38.096;2022-12-11T06:18:59;99827.84;;;3.71;74.81
69780;BME280;57052;55.602;38.096;2022-12-11T06:21:30;99836.13;;;3.69;74.60
69780;BME280;57052;55.602;38.096;2022-12-11T06:23:59;99832.78;;;3.62;74.45
69780;BME280;57052;55.602;38.096;2022-12-11T06:26:26;99844.41;;;3.68;74.42
69780;BME280;57052;55.602;38.096;2022-12-11T06:28:51;99840.81;;;3.62;74.61
69780;BME280;57052;55.602;38.096;2022-12-11T06:31:18;99851.38;;;3.69;74.55
69780;BME280;57052;55.602;38.096;2022-12-11T06:33:44;99849.75;;;3.68;74.07
69780;BME280;57052;55.602;38.096;2022-12-11T06:36:12;99835.34;;;3.57;73.99
69780;BME280;57052;55.602;38.096;2022-12-11T06:38:38;99854.41;;;3.72;74.22
69780;BME280;57052;55.602;38.096;2022-12-11T06:41:04;99856.03;;;3.73;73.94
69780;BME280;57052;55.602;38.096;2022-12-11T06:43:41;99850.66;;;3.73;74.44
69780;BME280;57052;55.602;38.096;2022-12-11T06:46:13;99853.94;;;3.75;74.46
69780;BME280;57052;55.602;38.096;2022-12-11T06:48:40;99855.56;;;3.76;74.29
69780;BME280;57052;55.602;38.096;2022-12-11T06:51:14;99851.28;;;3.75;74.12
69780;BME280;57052;55.602;38.096;2022-12-11T06:53:43;99856.38;;;3.77;73.70
69780;BME280;57052;55.602;38.096;2022-12-11T06:56:11;99846.72;;;3.64;73.52
69780;BME280;57052;55.602;38.096;2022-12-11T06:58:38;99851.72;;;3.72;73.50
69780;BME280;57052;55.602;38.096;2022-12-11T07:01:16;99849.75;;;3.68;74.01
69780;BME280;57052;55.602;38.096;2022-12-11T07:03:43;99857.66;;;3.74;73.76
69780;BME280;57052;55.602;38.096;2022-12-11T07:06:08;99843.03;;;3.65;73.56
69780;BME280;57052;55.602;38.096;2022-12-11T07:08:35;99845.81;;;3.70;73.93
69780;BME280;57052;55.602;38.096;2022-12-11T07:11:10;99854.97;;;3.74;73.46
69780;BME280;57052;55.602;38.096;2022-12-11T07:13:37;99854.97;;;3.74;73.84
69780;BME280;57052;55.602;38.096;2022-12-11T07:16:03;99866.25;;;3.76;74.09
69780;BME280;57052;55.602;38.096;2022-12-11T07:18:53;99859.31;;;3.75;73.24
69780;BME280;57052;55.602;38.096;2022-12-11T07:21:19;99869.19;;;3.75;73.82
69780;BME280;57052;55.602;38.096;2022-12-11T07:23:45;99874.19;;;3.71;73.42
69780;BME280;57052;55.602;38.096;2022-12-11T07:26:24;99883.16;;;3.77;73.77
69780;BME280;57052;55.602;38.096;2022-12-11T07:28:50;99882.78;;;3.73;73.60
69780;BME280;57052;55.602;38.096;2022-12-11T07:31:21;99897.34;;;3.77;73.71
69780;BME280;57052;55.602;38.096;2022-12-11T07:33:55;99876.75;;;3.78;73.33
69780;BME280;57052;55.602;38.096;2022-12-11T07:36:22;99877.56;;;3.78;73.33
69780;BME280;57052;55.602;38.096;2022-12-11T07:38:47;99879.53;;;3.71;73.83
69780;BME280;57052;55.602;38.096;2022-12-11T07:41:14;99913.41;;;3.77;73.65
69780;BME280;57052;55.602;38.096;2022-12-11T07:43:41;99918.78;;;3.77;73.55
69780;BME280;57052;55.602;38.096;2022-12-11T07:46:13;99894.91;;;3.64;73.51
69780;BME280;57052;55.602;38.096;2022-12-11T07:48:54;99902.22;;;3.69;73.32
69780;BME280;57052;55.602;38.096;2022-12-11T07:51:23;99916.91;;;3.78;73.71
69780;BME280;57052;55.602;38.096;2022-12-11T07:53:49;99908.88;;;3.78;73.66
69780;BME280;57052;55.602;38.096;2022-12-11T07:56:16;99902.91;;;3.76;73.50
69780;BME280;57052;55.602;38.096;2022-12-11T07:58:42;99887.94;;;3.75;73.63
69780;BME280;57052;55.602;38.096;2022-12-11T08:01:18;99885.94;;;3.82;73.45
69780;BME280;57052;55.602;38.096;2022-12-11T08:03:44;99886.50;;;3.84;73.20
69780;BME280;57052;55.602;38.096;2022-12-11T08:06:10;99881.97;;;3.84;72.80
69780;BME280;57052;55.602;38.096;2022-12-11T08:08:36;99887.78;;;3.81;72.63
69780;BME280;57052;55.602;38.096;2022-12-11T08:11:03;99900.72;;;3.84;73.15
69780;BME280;57052;55.602;38.096;2022-12-11T08:13:30;99886.41;;;3.79;72.73
69780;BME280;57052;55.602;38.096;2022-12-11T08:15:56;99910.16;;;3.87;73.26
69780;BME280;57052;55.602;38.096;2022-12-11T08:18:22;99928.63;;;3.88;73.27
69780;BME280;57052;55.602;38.096;2022-12-11T08:20:47;99931.09;;;3.90;72.89
69780;BME280;57052;55.602;38.096;2022-12-11T08:23:13;99934.59;;;3.91;72.96
69780;BME280;57052;55.602;38.096;2022-12-11T08:25:38;99932.72;;;3.91;72.61
69780;BME280;57052;55.602;38.096;2022-12-11T08:28:04;99908.88;;;3.89;72.95
69780;BME280;57052;55.602;38.096;2022-12-11T08:30:30;99916.66;;;3.91;72.81
69780;BME280;57052;55.602;38.096;2022-12-11T08:32:56;99908.41;;;3.93;73.15
69780;BME280;57052;55.602;38.096;2022-12-11T08:35:24;99916.44;;;3.93;72.65
69780;BME280;57052;55.602;38.096;2022-12-11T08:37:50;99902.81;;;3.82;72.81
69780;BME280;57052;55.602;38.096;2022-12-11T08:40:15;99910.25;;;3.92;73.13
69780;BME280;57052;55.602;38.096;2022-12-11T08:43:01;99916.19;;;3.94;72.54
69780;BME280;57052;55.602;38.096;2022-12-11T08:45:27;99922.00;;;3.91;72.60
69780;BME280;57052;55.602;38.096;2022-12-11T08:47:53;99933.06;;;3.95;72.66
69780;BME280;57052;55.602;38.096;2022-12-11T08:50:18;99917.72;;;3.90;72.37
69780;BME280;57052;55.602;38.096;2022-12-11T08:52:44;99932.72;;;3.91;72.56
69780;BME280;57052;55.602;38.096;2022-12-11T08:55:10;99931.09;;;3.90;72.53
69780;BME280;57052;55.602;38.096;2022-12-11T08:57:38;99961.25;;;3.97;72.22
69780;BME280;57052;55.602;38.096;2022-12-11T09:00:11;99953.91;;;3.93;72.14
69780;BME280;57052;55.602;38.096;2022-12-11T09:02:37;99948.31;;;3.94;72.13
69780;BME280;57052;55.602;38.096;2022-12-11T09:05:04;99950.19;;;3.94;72.28
69780;BME280;57052;55.602;38.096;2022-12-11T09:07:36;99970.09;;;3.98;71.91
69780;BME280;57052;55.602;38.096;2022-12-11T09:10:04;99976.75;;;3.95;72.64
69780;BME280;57052;55.602;38.096;2022-12-11T09:12:32;99961.00;;;3.87;72.38
69780;BME280;57052;55.602;38.096;2022-12-11T09:14:58;99975.34;;;3.93;72.54
69780;BME280;57052;55.602;38.096;2022-12-11T09:17:27;99965.56;;;3.86;72.68
69780;BME280;57052;55.602;38.096;2022-12-11T09:19:52;99960.53;;;3.78;72.30
69780;BME280;57052;55.602;38.096;2022-12-11T09:22:18;99983.38;;;3.93;72.02
69780;BME280;57052;55.602;38.096;2022-12-11T09:24:43;99984.97;;;3.94;72.58
69780;BME280;57052;55.602;38.096;2022-12-11T09:27:10;99982.91;;;3.96;72.65
69780;BME280;57052;55.602;38.096;2022-12-11T09:29:37;99971.97;;;3.85;72.08
69780;BME280;57052;55.602;38.096;2022-12-11T09:32:03;99976.25;;;3.86;72.58
69780;BME280;57052;55.602;38.096;2022-12-11T09:34:29;99992.34;;;3.98;72.23
69780;BME280;57052;55.602;38.096;2022-12-11T09:36:54;99996.53;;;3.94;72.50
69780;BME280;57052;55.602;38.096;2022-12-11T09:39:20;100005.94;;;3.97;72.54
69780;BME280;57052;55.602;38.096;2022-12-11T09:42:00;99995.56;;;3.88;71.75
69780;BME280;57052;55.602;38.096;2022-12-11T09:47:33;99994.09;;;3.93;71.98
69780;BME280;57052;55.602;38.096;2022-12-11T09:55:31;100001.41;;;3.97;72.38
69780;BME280;57052;55.602;38.096;2022-12-11T09:58:16;99990.59;;;3.92;72.05
69780;BME280;57052;55.602;38.096;2022-12-11T10:00:55;99987.53;;;3.88;72.23
69780;BME280;57052;55.602;38.096;2022-12-11T10:06:47;99983.47;;;3.86;72.12
69780;BME280;57052;55.602;38.096;2022-12-11T10:09:26;100003.28;;;3.97;71.93
69780;BME280;57052;55.602;38.096;2022-12-11T10:17:21;100011.09;;;3.98;71.99
69780;BME280;57052;55.602;38.096;2022-12-11T10:19:49;99999.44;;;3.93;71.96
69780;BME280;57052;55.602;38.096;2022-12-11T10:22:42;99998.03;;;3.90;72.01
69780;BME280;57052;55.602;38.096;2022-12-11T10:25:15;100004.91;;;3.98;72.28
69780;BME280;57052;55.602;38.096;2022-12-11T10:27:42;99997.34;;;3.95;72.13
69780;BME280;57052;55.602;38.096;2022-12-11T10:35:44;100011.31;;;3.97;71.74
69780;BME280;57052;55.602;38.096;2022-12-11T10:38:15;100002.25;;;3.98;71.89
69780;BME280;57052;55.602;38.096;2022-12-11T10:40:44;100007.00;;;3.96;71.63
69780;BME280;57052;55.602;38.096;2022-12-11T10:43:10;100008.88;;;3.95;71.73
69780;BME280;57052;55.602;38.096;2022-12-11T10:45:49;99993.38;;;3.85;72.09
69780;BME280;57052;55.602;38.096;2022-12-11T10:48:15;99997.78;;;3.92;72.31
69780;BME280;57052;55.602;38.096;2022-12-11T10:50:42;100010.47;;;3.96;71.97
69780;BME280;57052;55.602;38.096;2022-12-11T10:53:29;100008.50;;;3.92;71.47
69780;BME280;57052;55.602;38.096;2022-12-11T10:55:56;100013.41;;;3.95;72.12
69780;BME280;57052;55.602;38.096;2022-12-11T10:58:25;100012.94;;;3.98;72.20
69780;BME280;57052;55.602;38.096;2022-12-11T11:01:05;100008.28;;;3.93;71.53
69780;BME280;57052;55.602;38.096;2022-12-11T11:03:32;100016.09;;;3.95;71.89
69780;BME280;57052;55.602;38.096;2022-12-11T11:06:17;99983.00;;;3.77;71.83
69780;BME280;57052;55.602;38.096;2022-12-11T11:08:46;100007.09;;;3.89;71.93
69780;BME280;57052;55.602;38.096;2022-12-11T11:13:51;99993.38;;;3.85;71.45
69780;BME280;57052;55.602;38.096;2022-12-11T11:16:20;100000.34;;;3.86;71.42
69780;BME280;57052;55.602;38.096;2022-12-11T11:18:52;99996.06;;;3.85;71.42
69780;BME280;57052;55.602;38.096;2022-12-11T11:21:21;99990.72;;;3.85;71.85
69780;BME280;57052;55.602;38.096;2022-12-11T11:23:47;99989.06;;;3.84;71.73
69780;BME280;57052;55.602;38.096;2022-12-11T11:26:13;99977.09;;;3.75;71.71
69780;BME280;57052;55.602;38.096;2022-12-11T11:28:40;99974.75;;;3.79;71.79
69780;BME280;57052;55.602;38.096;2022-12-11T11:31:11;99973.25;;;3.83;71.53
69780;BME280;57052;55.602;38.096;2022-12-11T11:36:24;99979.28;;;3.78;72.06
69780;BME280;57052;55.602;38.096;2022-12-11T11:41:42;99966.59;;;3.74;71.91
69780;BME280;57052;55.602;38.096;2022-12-11T11:44:14;99977.28;;;3.74;71.92
69780;BME280;57052;55.602;38.096;2022-12-11T11:46:56;99991.50;;;3.74;71.59
69780;BME280;57052;55.602;38.096;2022-12-11T11:49:38;99980.31;;;3.66;71.36
69780;BME280;57052;55.602;38.096;2022-12-11T11:52:28;99993.00;;;3.70;71.77
69780;BME280;57052;55.602;38.096;2022-12-11T11:55:02;99991.13;;;3.71;71.72
69780;BME280;57052;55.602;38.096;2022-12-11T11:58:30;99984.38;;;3.68;72.46
69780;BME280;57052;55.602;38.096;2022-12-11T12:00:30;99976.22;;;3.63;71.97
69780;BME280;57052;55.602;38.096;2022-12-11T12:02:59;99977.88;;;3.64;72.21
69780;BME280;57052;55.602;38.096;2022-12-11T12:08:22;99995.09;;;3.68;72.41
69780;BME280;57052;55.602;38.096;2022-12-11T12:11:06;99991.69;;;3.61;72.18
69780;BME280;57052;55.602;38.096;2022-12-11T12:16:54;100001.81;;;3.59;72.08
69780;BME280;57052;55.602;38.096;2022-12-11T12:19:45;100021.59;;;3.58;72.71
69780;BME280;57052;55.602;38.096;2022-12-11T12:30:43;100013.44;;;3.53;72.99
69780;BME280;57052;55.602;38.096;2022-12-11T12:33:33;100019.41;;;3.55;72.93
69780;BME280;57052;55.602;38.096;2022-12-11T12:39:02;100022.88;;;3.56;72.52
69780;BME280;57052;55.602;38.096;2022-12-11T12:44:31;100007.41;;;3.58;72.86
69780;BME280;57052;55.602;38.096;2022-12-11T12:47:06;100008.22;;;3.58;72.84
69780;BME280;57052;55.602;38.096;2022-12-11T12:49:48;100005.78;;;3.57;72.77
69780;BME280;57052;55.602;38.096;2022-12-11T12:52:17;100007.28;;;3.53;72.47
69780;BME280;57052;55.602;38.096;2022-12-11T12:54:46;100008.44;;;3.57;72.53
69780;BME280;57052;55.602;38.096;2022-12-11T12:57:33;99966.84;;;3.31;72.16
69780;BME280;57052;55.602;38.096;2022-12-11T12:59:59;99996.59;;;3.53;72.47
69780;BME280;57052;55.602;38.096;2022-12-11T13:02:25;100002.28;;;3.56;73.06
69780;BME280;57052;55.602;38.096;2022-12-11T13:04:58;100002.28;;;3.56;72.64
69780;BME280;57052;55.602;38.096;2022-12-11T13:07:30;99975.41;;;3.51;73.28
69780;BME280;57052;55.602;38.096;2022-12-11T13:10:06;99994.03;;;3.58;73.08
69780;BME280;57052;55.602;38.096;2022-12-11T13:12:39;99982.38;;;3.52;72.99
69780;BME280;57052;55.602;38.096;2022-12-11T13:15:23;99992.03;;;3.53;72.60
69780;BME280;57052;55.602;38.096;2022-12-11T13:17:49;99991.91;;;3.48;72.49
69780;BME280;57052;55.602;38.096;2022-12-11T13:20:21;100004.13;;;3.56;73.31
69780;BME280;57052;55.602;38.096;2022-12-11T13:25:52;100000.88;;;3.54;73.65
69780;BME280;57052;55.602;38.096;2022-12-11T13:33:46;99988.06;;;3.56;72.60
69780;BME280;57052;55.602;38.096;2022-12-11T13:38:45;99960.63;;;3.49;73.33
69780;BME280;57052;55.602;38.096;2022-12-11T13:41:12;99961.09;;;3.57;73.25
69780;BME280;57052;55.602;38.096;2022-12-11T13:43:40;99947.72;;;3.57;72.59
69780;BME280;57052;55.602;38.096;2022-12-11T13:46:11;99943.19;;;3.58;73.65
69780;BME280;57052;55.602;38.096;2022-12-11T13:48:47;99938.88;;;3.57;73.08
69780;BME280;57052;55.602;38.096;2022-12-11T13:51:19;99922.94;;;3.50;72.93
69780;BME280;57052;55.602;38.096;2022-12-11T13:53:46;99916.31;;;3.53;72.80
69780;BME280;57052;55.602;38.096;2022-12-11T13:56:17;99933.78;;;3.55;73.00
69780;BME280;57052;55.602;38.096;2022-12-11T13:58:44;99955.31;;;3.60;73.54
69780;BME280;57052;55.602;38.096;2022-12-11T14:01:32;99949.91;;;3.49;73.88
69780;BME280;57052;55.602;38.096;2022-12-11T14:04:06;99950.16;;;3.59;73.39
69780;BME280;57052;55.602;38.096;2022-12-11T14:06:33;99947.28;;;3.60;73.20
69780;BME280;57052;55.602;38.096;2022-12-11T14:09:02;99932.94;;;3.55;73.10
69780;BME280;57052;55.602;38.096;2022-12-11T14:11:40;99932.81;;;3.61;73.66
69780;BME280;57052;55.602;38.096;2022-12-11T14:14:17;99930.41;;;3.60;73.26
69780;BME280;57052;55.602;38.096;2022-12-11T14:16:49;99935.28;;;3.63;72.81
69780;BME280;57052;55.602;38.096;2022-12-11T14:19:18;99918.50;;;3.56;73.30
69780;BME280;57052;55.602;38.096;2022-12-11T14:22:02;99926.31;;;3.57;73.36